Time;durP1;ratioP1;P1;durP2;ratioP2;P2;SDS_P1;SDS_P2;PMS_P1;PMS_P2;Temp;Humidity;BMP_temperature;BMP_pressure;BME280_temperature;BME280_humidity;BME280_pressure;Samples;Min_cycle;Max_cycle;Signal;HPM_P1;HPM_P2
2022/12/22 03:27:26;;;;;;;1.73;0.60;;;11.20;99.90;;;;;;5092220;28;20496;-73
2022/12/22 03:29:51;;;;;;;0.73;0.50;;;11.10;99.90;;;;;;5090996;28;20024;-73
2022/12/22 03:32:17;;;;;;;1.10;0.60;;;11.10;99.90;;;;;;5090770;28;20032;-73
2022/12/22 03:34:43;;;;;;;2.53;0.60;;;11.20;99.90;;;;;;5092353;28;20591;-73
2022/12/22 03:37:08;;;;;;;1.85;0.47;;;11.10;99.90;;;;;;5092435;28;20024;-73
2022/12/22 03:39:34;;;;;;;1.40;0.60;;;11.10;99.90;;;;;;5090744;28;20114;-73
2022/12/22 03:47:30;;;;;;;1.27;0.50;;;11.20;99.90;;;;;;5091622;28;20504;-73
2022/12/22 03:49:56;;;;;;;1.85;0.70;;;11.20;99.90;;;;;;5090987;28;20469;-73
2022/12/22 03:52:21;;;;;;;1.95;0.60;;;11.20;99.90;;;;;;5091400;28;20081;-74
2022/12/22 03:54:47;;;;;;;2.97;0.70;;;11.20;99.90;;;;;;5090831;28;20490;-73
2022/12/22 03:57:13;;;;;;;3.20;0.50;;;11.20;99.90;;;;;;5090785;28;20020;-73
2022/12/22 03:59:38;;;;;;;2.60;0.57;;;11.20;99.90;;;;;;5090270;28;20058;-73
2022/12/22 04:02:05;;;;;;;1.45;0.60;;;11.20;99.90;;;;;;5090824;28;20031;-74
2022/12/22 04:04:31;;;;;;;2.75;0.80;;;11.10;99.90;;;;;;5090598;28;20098;-73
2022/12/22 04:06:57;;;;;;;2.63;0.73;;;11.10;99.90;;;;;;5092009;28;20522;-73
2022/12/22 04:09:23;;;;;;;1.42;0.43;;;11.10;99.90;;;;;;5090236;28;20024;-74
2022/12/22 04:14:34;;;;;;;1.58;0.50;;;11.00;99.90;;;;;;5091739;28;20092;-73
2022/12/22 04:17:04;;;;;;;4.00;0.57;;;11.00;99.90;;;;;;5052354;28;1077460;-73
2022/12/22 04:19:30;;;;;;;3.22;1.10;;;11.00;99.90;;;;;;5091773;28;20040;-73
2022/12/22 04:21:56;;;;;;;2.92;0.63;;;11.00;99.90;;;;;;5091194;28;20058;-73
2022/12/22 04:24:21;;;;;;;1.95;0.80;;;11.00;99.90;;;;;;5090510;28;20028;-76
2022/12/22 04:26:47;;;;;;;1.35;0.60;;;10.90;99.90;;;;;;5090925;28;20465;-73
2022/12/22 04:29:12;;;;;;;2.17;0.70;;;10.90;99.90;;;;;;5091018;28;20028;-73
2022/12/22 04:31:38;;;;;;;4.38;0.68;;;10.90;99.90;;;;;;5092066;28;20067;-73
2022/12/22 04:34:03;;;;;;;1.90;0.77;;;10.90;99.90;;;;;;5091271;28;20024;-73
2022/12/22 04:36:29;;;;;;;1.20;0.70;;;10.90;99.90;;;;;;5090596;28;20039;-73
2022/12/22 04:38:55;;;;;;;3.85;0.60;;;11.00;99.90;;;;;;5092357;28;20024;-73
2022/12/22 04:41:20;;;;;;;2.55;0.68;;;11.00;99.90;;;;;;5091695;28;20028;-74
2022/12/22 04:43:46;;;;;;;2.50;0.90;;;11.00;99.90;;;;;;5092246;28;20024;-73
2022/12/22 04:46:11;;;;;;;2.00;0.70;;;11.00;99.90;;;;;;5092147;28;20042;-73
2022/12/22 04:48:37;;;;;;;2.63;0.57;;;11.10;99.90;;;;;;5101128;28;20032;-73
2022/12/22 04:51:03;;;;;;;2.35;0.73;;;11.10;99.90;;;;;;5096429;28;20031;-73
2022/12/22 04:53:29;;;;;;;1.75;0.75;;;11.10;99.90;;;;;;5111690;28;20114;-73
2022/12/22 04:56:01;;;;;;;3.00;0.70;;;11.10;99.90;;;;;;5093931;28;20073;-73
2022/12/22 04:58:28;;;;;;;3.65;0.68;;;11.10;99.90;;;;;;5091969;28;20115;-73
2022/12/22 05:00:53;;;;;;;3.25;0.85;;;11.20;99.90;;;;;;5099928;28;20030;-74
2022/12/22 05:03:19;;;;;;;1.98;0.60;;;11.20;99.90;;;;;;5105920;28;20385;-76
2022/12/22 05:05:45;;;;;;;0.98;0.47;;;11.20;99.90;;;;;;5107105;28;20122;-73
2022/12/22 05:08:10;;;;;;;1.75;0.68;;;11.20;99.90;;;;;;5093967;28;20030;-73
2022/12/22 05:10:36;;;;;;;4.78;0.50;;;11.20;99.90;;;;;;5103453;28;20117;-73
2022/12/22 05:13:02;;;;;;;3.42;0.63;;;11.30;99.90;;;;;;5100600;28;20030;-73
2022/12/22 05:15:30;;;;;;;5.82;0.75;;;11.30;99.90;;;;;;5110952;27;20039;-73
2022/12/22 05:17:57;;;;;;;3.10;0.70;;;11.20;99.90;;;;;;5114239;28;20047;-73
2022/12/22 05:20:24;;;;;;;3.47;0.88;;;11.30;99.90;;;;;;5099948;28;20426;-74
2022/12/22 05:22:49;;;;;;;4.47;0.63;;;11.30;99.90;;;;;;5105332;28;20032;-74
2022/12/22 05:25:15;;;;;;;2.88;0.80;;;11.30;99.90;;;;;;5107507;28;20032;-73
2022/12/22 05:27:42;;;;;;;1.38;0.40;;;11.30;99.90;;;;;;5098782;27;20024;-74
2022/12/22 05:30:08;;;;;;;4.28;0.60;;;11.40;99.90;;;;;;5110694;28;20461;-74
2022/12/22 05:32:34;;;;;;;1.08;0.50;;;11.40;99.90;;;;;;5099961;28;20020;-74
2022/12/22 05:35:01;;;;;;;4.25;0.70;;;11.40;99.90;;;;;;5114221;28;20035;-73
2022/12/22 05:37:27;;;;;;;2.03;0.70;;;11.40;99.90;;;;;;5099434;28;20034;-74
2022/12/22 05:39:52;;;;;;;2.53;0.68;;;11.40;99.90;;;;;;5101112;28;20023;-73
2022/12/22 05:42:34;;;;;;;3.65;0.55;;;11.40;99.90;;;;;;5114222;28;20020;-73
2022/12/22 05:45:09;;;;;;;4.13;0.82;;;11.40;99.90;;;;;;5111678;28;20028;-73
2022/12/22 05:47:35;;;;;;;3.03;0.68;;;11.40;99.90;;;;;;5093033;28;20047;-74
2022/12/22 05:50:00;;;;;;;4.05;0.60;;;11.50;99.90;;;;;;5105141;28;20023;-73
2022/12/22 05:52:26;;;;;;;2.55;0.60;;;11.50;99.90;;;;;;5113466;28;20389;-76
2022/12/22 05:54:52;;;;;;;0.90;0.50;;;11.50;99.90;;;;;;5105042;28;20499;-73
2022/12/22 05:57:18;;;;;;;2.85;0.70;;;11.50;99.90;;;;;;5098029;28;20039;-73
2022/12/22 05:59:43;;;;;;;2.13;0.60;;;11.50;99.90;;;;;;5095115;28;20107;-73
2022/12/22 06:02:09;;;;;;;1.35;0.70;;;11.50;99.90;;;;;;5113730;28;20042;-73
2022/12/22 06:04:34;;;;;;;5.18;0.73;;;11.50;99.90;;;;;;5114076;28;20049;-73
2022/12/22 06:07:00;;;;;;;1.92;0.63;;;11.50;99.90;;;;;;5112115;28;20115;-73
2022/12/22 06:09:25;;;;;;;3.97;0.80;;;11.50;99.90;;;;;;5095898;28;20469;-76
2022/12/22 06:11:51;;;;;;;5.25;0.73;;;11.40;99.90;;;;;;5114269;28;20032;-73
2022/12/22 06:14:16;;;;;;;2.05;0.70;;;11.50;99.90;;;;;;5106317;28;20028;-73
2022/12/22 06:16:42;;;;;;;2.75;0.57;;;11.50;99.90;;;;;;5111772;28;20079;-73
2022/12/22 06:19:08;;;;;;;4.50;0.70;;;11.50;99.90;;;;;;5099069;28;20449;-74
2022/12/22 06:21:33;;;;;;;4.18;0.80;;;11.50;99.90;;;;;;5109329;28;20115;-73
2022/12/22 06:23:59;;;;;;;5.95;0.98;;;11.50;99.90;;;;;;5097069;28;20044;-73
2022/12/22 06:26:24;;;;;;;2.78;0.70;;;11.50;99.90;;;;;;5104127;28;20039;-73
2022/12/22 06:28:50;;;;;;;2.88;0.77;;;11.50;99.90;;;;;;5103563;28;20023;-73
2022/12/22 06:31:15;;;;;;;7.20;1.23;;;11.50;99.90;;;;;;5097664;28;20059;-73
2022/12/22 06:33:41;;;;;;;2.78;0.80;;;11.60;99.90;;;;;;5108753;28;20452;-73
2022/12/22 06:36:08;;;;;;;5.35;0.80;;;11.60;99.90;;;;;;5099158;28;20032;-74
2022/12/22 06:38:33;;;;;;;5.35;1.55;;;11.60;99.90;;;;;;5103849;28;20070;-73
2022/12/22 06:40:59;;;;;;;6.10;1.25;;;11.60;99.90;;;;;;5105327;28;20388;-73
2022/12/22 06:43:25;;;;;;;5.13;0.75;;;11.60;99.90;;;;;;5099853;27;20521;-73
2022/12/22 06:45:51;;;;;;;6.60;1.00;;;11.60;99.90;;;;;;5111929;28;20035;-73
2022/12/22 06:48:17;;;;;;;6.75;1.80;;;11.50;99.90;;;;;;5103725;28;20372;-73
2022/12/22 06:50:42;;;;;;;8.23;1.30;;;11.50;99.90;;;;;;5112160;28;20930;-74
2022/12/22 06:53:08;;;;;;;6.55;1.15;;;11.50;99.90;;;;;;5112732;28;20440;-73
2022/12/22 06:55:34;;;;;;;8.57;1.17;;;11.60;99.90;;;;;;5094788;28;20115;-74
2022/12/22 06:58:00;;;;;;;4.75;0.90;;;11.70;99.90;;;;;;5109407;28;20020;-73
2022/12/22 07:00:25;;;;;;;4.78;0.90;;;11.70;99.90;;;;;;5099666;28;20019;-73
2022/12/22 07:02:51;;;;;;;5.00;1.00;;;11.70;99.90;;;;;;5100625;28;20028;-73
2022/12/22 07:05:16;;;;;;;4.07;0.98;;;11.70;99.90;;;;;;5107156;28;20445;-73
2022/12/22 07:07:42;;;;;;;4.05;1.00;;;11.80;99.90;;;;;;5110800;28;20030;-73
2022/12/22 07:10:08;;;;;;;5.22;1.10;;;11.80;99.90;;;;;;5097573;28;20020;-74
2022/12/22 07:12:34;;;;;;;4.05;0.95;;;11.80;99.90;;;;;;5102489;28;20031;-73
2022/12/22 07:14:59;;;;;;;8.18;0.90;;;11.80;99.90;;;;;;5103930;28;20027;-73
2022/12/22 07:17:25;;;;;;;3.67;0.95;;;11.90;99.90;;;;;;5112285;28;20052;-74
2022/12/22 07:19:51;;;;;;;5.35;1.05;;;11.90;99.90;;;;;;5108867;28;20016;-73
2022/12/22 07:22:16;;;;;;;5.70;1.55;;;11.90;99.90;;;;;;5098452;28;20511;-73
2022/12/22 07:24:42;;;;;;;8.60;1.20;;;12.00;99.90;;;;;;5100746;28;20031;-74
2022/12/22 07:27:07;;;;;;;8.75;1.40;;;12.00;99.90;;;;;;5105532;28;20430;-74
2022/12/22 07:29:35;;;;;;;4.22;1.00;;;12.00;99.90;;;;;;5094627;28;20028;-73
2022/12/22 07:32:01;;;;;;;9.07;1.30;;;12.10;99.90;;;;;;5107044;28;20020;-74
2022/12/22 07:34:26;;;;;;;5.22;1.02;;;12.10;99.90;;;;;;5098616;28;20023;-75
2022/12/22 07:36:52;;;;;;;5.45;0.88;;;12.10;99.90;;;;;;5099410;28;20031;-73
2022/12/22 07:39:17;;;;;;;4.07;0.98;;;12.10;99.90;;;;;;5091259;28;20035;-73
2022/12/22 07:44:27;;;;;;;4.72;1.10;;;12.00;99.90;;;;;;5092728;28;20214;-74
2022/12/22 07:46:53;;;;;;;3.28;1.05;;;12.00;99.90;;;;;;5111574;28;20114;-73
2022/12/22 07:52:03;;;;;;;5.75;1.10;;;12.00;99.90;;;;;;5097719;28;20570;-73
2022/12/22 07:54:29;;;;;;;5.82;1.38;;;12.00;99.90;;;;;;5103606;28;20020;-73
2022/12/22 07:56:55;;;;;;;8.25;1.63;;;12.00;99.90;;;;;;5104630;28;20061;-73
2022/12/22 07:59:21;;;;;;;6.18;1.33;;;12.00;99.90;;;;;;5097726;28;20096;-73
2022/12/22 08:01:46;;;;;;;7.53;1.15;;;12.00;99.90;;;;;;5092477;28;20063;-73
2022/12/22 08:04:13;;;;;;;9.77;2.20;;;12.00;99.90;;;;;;5091601;28;20428;-73
2022/12/22 08:06:39;;;;;;;7.35;1.20;;;12.00;99.90;;;;;;5090739;28;20028;-73
2022/12/22 08:09:06;;;;;;;9.80;1.23;;;12.00;99.90;;;;;;5105602;28;20536;-73
2022/12/22 08:11:32;;;;;;;7.13;1.23;;;12.00;99.90;;;;;;5112742;28;20534;-74
2022/12/22 08:13:58;;;;;;;7.47;1.30;;;12.10;99.90;;;;;;5107563;28;20028;-73
2022/12/22 08:16:24;;;;;;;8.98;1.52;;;12.20;99.90;;;;;;5098361;28;20089;-73
2022/12/22 08:18:49;;;;;;;5.78;0.90;;;12.20;99.90;;;;;;5111398;28;20051;-73
2022/12/22 08:21:15;;;;;;;8.77;1.50;;;12.20;99.90;;;;;;5111523;28;20358;-73
2022/12/22 08:23:41;;;;;;;6.38;1.30;;;12.20;99.90;;;;;;5093368;28;20024;-73
2022/12/22 08:26:18;;;;;;;8.30;1.00;;;12.20;99.90;;;;;;5105498;28;20035;-73
2022/12/22 08:28:49;;;;;;;6.32;1.35;;;12.20;99.90;;;;;;5101155;28;20031;-73
2022/12/22 08:31:15;;;;;;;8.10;1.52;;;12.20;99.90;;;;;;5096410;28;20035;-73
2022/12/22 08:33:41;;;;;;;6.22;1.50;;;12.30;99.90;;;;;;5090701;28;20074;-73
2022/12/22 08:36:08;;;;;;;5.72;1.90;;;12.30;99.90;;;;;;5096283;28;20035;-73
2022/12/22 08:38:38;;;;;;;7.85;1.88;;;12.30;99.90;;;;;;5101412;28;20028;-73
2022/12/22 08:41:04;;;;;;;5.55;1.40;;;12.30;99.90;;;;;;5090723;28;20035;-73
2022/12/22 08:43:31;;;;;;;9.73;1.20;;;12.30;99.90;;;;;;5090727;28;20028;-74
2022/12/22 08:45:56;;;;;;;5.00;1.10;;;12.30;99.90;;;;;;5100856;28;20028;-73
2022/12/22 08:48:22;;;;;;;8.30;1.27;;;12.20;99.90;;;;;;5098726;28;20030;-73
2022/12/22 08:50:47;;;;;;;7.22;1.42;;;12.20;99.90;;;;;;5111870;28;20031;-74
2022/12/22 08:53:13;;;;;;;7.93;1.25;;;12.20;99.90;;;;;;5099820;28;20386;-73
2022/12/22 08:55:38;;;;;;;8.80;1.40;;;12.20;99.90;;;;;;5111323;28;20120;-75
2022/12/22 08:58:04;;;;;;;9.10;1.05;;;12.20;99.90;;;;;;5099899;28;20407;-73
2022/12/22 09:00:30;;;;;;;6.85;1.10;;;12.10;99.90;;;;;;5115177;28;20024;-75
2022/12/22 09:02:55;;;;;;;5.68;1.48;;;12.00;99.90;;;;;;5102154;28;20025;-73
2022/12/22 09:05:21;;;;;;;7.95;1.10;;;12.00;99.90;;;;;;5110488;28;20124;-73
2022/12/22 09:07:47;;;;;;;10.40;1.45;;;11.90;99.90;;;;;;5114067;28;20028;-73
2022/12/22 09:10:13;;;;;;;9.88;1.30;;;11.90;99.90;;;;;;5108100;28;20052;-74
2022/12/22 09:12:39;;;;;;;8.68;1.20;;;11.80;99.90;;;;;;5103240;28;20028;-74
2022/12/22 09:15:07;;;;;;;9.50;1.38;;;11.70;99.90;;;;;;5107515;28;20054;-74
2022/12/22 09:17:34;;;;;;;11.10;1.48;;;11.70;99.90;;;;;;5113245;28;20056;-74
2022/12/22 09:20:00;;;;;;;6.18;1.10;;;11.60;99.90;;;;;;5109844;28;20457;-73
2022/12/22 09:22:26;;;;;;;5.38;1.70;;;11.60;99.90;;;;;;5102299;28;20380;-73
2022/12/22 09:24:52;;;;;;;7.13;1.25;;;11.60;99.90;;;;;;5103067;28;20036;-73
2022/12/22 09:27:17;;;;;;;6.20;1.02;;;11.40;99.90;;;;;;5109152;28;20160;-74
2022/12/22 09:29:43;;;;;;;8.10;1.88;;;11.40;99.90;;;;;;5098231;28;20024;-73
2022/12/22 09:32:08;;;;;;;9.20;1.30;;;11.40;99.90;;;;;;5108365;28;20020;-74
2022/12/22 09:34:34;;;;;;;9.43;1.30;;;11.40;99.90;;;;;;5104067;28;20027;-74
2022/12/22 09:37:00;;;;;;;5.38;1.48;;;11.30;99.90;;;;;;5100642;28;20028;-73
2022/12/22 09:39:26;;;;;;;5.22;0.90;;;11.30;99.90;;;;;;5111727;28;20518;-73
2022/12/22 09:41:53;;;;;;;10.85;1.20;;;11.30;99.90;;;;;;5096386;28;20023;-75
2022/12/22 09:44:24;;;;;;;6.53;1.50;;;11.30;99.90;;;;;;5101011;28;20035;-73
2022/12/22 09:46:51;;;;;;;4.45;1.40;;;11.30;99.90;;;;;;5104258;28;20081;-73
2022/12/22 09:49:18;;;;;;;6.22;1.20;;;11.30;99.90;;;;;;5114005;28;20024;-73
2022/12/22 09:51:57;;;;;;;4.45;1.10;;;11.20;99.90;;;;;;5096486;28;20115;-74
2022/12/22 09:54:24;;;;;;;8.55;1.58;;;11.20;99.90;;;;;;5110251;28;20024;-74
2022/12/22 09:56:50;;;;;;;7.03;1.20;;;11.20;99.90;;;;;;5112770;28;20031;-73
2022/12/22 09:59:18;;;;;;;6.70;1.20;;;11.20;99.90;;;;;;5098643;28;20024;-73
2022/12/22 10:02:00;;;;;;;4.85;1.40;;;11.20;99.90;;;;;;5109590;28;20540;-73
2022/12/22 10:04:48;;;;;;;4.63;1.40;;;11.20;99.90;;;;;;5101734;28;20035;-73
2022/12/22 10:07:19;;;;;;;4.75;0.90;;;11.30;99.90;;;;;;5098572;28;20028;-73
2022/12/22 10:09:45;;;;;;;4.30;1.00;;;11.30;99.90;;;;;;5093204;28;20035;-73
2022/12/22 10:12:17;;;;;;;8.90;1.10;;;11.30;99.90;;;;;;5093522;28;20380;-73
2022/12/22 10:14:46;;;;;;;7.43;1.23;;;11.30;99.90;;;;;;5092599;28;20431;-73
2022/12/22 10:17:30;;;;;;;6.72;0.90;;;11.30;99.90;;;;;;5094356;28;20044;-73
2022/12/22 10:20:21;;;;;;;5.10;1.17;;;11.30;99.90;;;;;;5093111;28;20028;-73
2022/12/22 10:22:50;;;;;;;5.82;0.70;;;11.30;99.90;;;;;;5092843;28;20031;-73
2022/12/22 10:25:37;;;;;;;7.90;1.13;;;11.40;99.90;;;;;;5094791;28;20028;-73
2022/12/22 10:28:16;;;;;;;8.63;1.33;;;11.40;99.90;;;;;;5093372;28;20412;-73
2022/12/22 10:30:42;;;;;;;6.93;1.25;;;11.40;99.90;;;;;;5093749;28;20030;-74
2022/12/22 10:33:10;;;;;;;7.10;1.13;;;11.40;99.90;;;;;;5092748;28;20123;-73
2022/12/22 10:35:48;;;;;;;3.55;0.60;;;11.30;99.90;;;;;;5092616;28;20484;-73
2022/12/22 10:38:22;;;;;;;6.03;1.70;;;11.30;99.90;;;;;;5093140;28;20024;-73
2022/12/22 10:40:52;;;;;;;6.45;1.42;;;11.30;99.90;;;;;;5092544;28;20054;-73
2022/12/22 10:43:33;;;;;;;4.82;1.00;;;11.30;99.90;;;;;;5094039;28;20401;-73
2022/12/22 10:46:00;;;;;;;4.90;0.98;;;11.30;99.90;;;;;;5094231;28;20028;-73
2022/12/22 10:48:35;;;;;;;7.10;1.15;;;11.30;99.90;;;;;;5094379;28;20024;-73
2022/12/22 10:51:04;;;;;;;7.30;1.50;;;11.30;99.90;;;;;;5092791;28;20050;-73
2022/12/22 10:53:49;;;;;;;4.93;1.20;;;11.20;99.90;;;;;;5092765;28;20063;-73
2022/12/22 10:56:31;;;;;;;4.28;1.50;;;11.20;99.90;;;;;;5092533;28;20035;-73
2022/12/22 10:59:18;;;;;;;8.85;1.20;;;11.20;99.90;;;;;;5093546;28;20522;-73
2022/12/22 11:01:43;;;;;;;5.45;1.27;;;11.20;99.90;;;;;;5092282;28;20032;-73
2022/12/22 11:04:24;;;;;;;6.40;0.90;;;11.20;99.90;;;;;;5092612;28;20358;-73
2022/12/22 11:06:52;;;;;;;5.97;1.67;;;11.20;99.90;;;;;;5092116;28;20028;-73
2022/12/22 11:09:17;;;;;;;8.38;1.40;;;11.30;99.90;;;;;;5093715;28;20031;-73
2022/12/22 11:12:01;;;;;;;5.25;1.20;;;11.30;99.90;;;;;;5091990;28;20024;-74
2022/12/22 11:14:50;;;;;;;3.78;1.10;;;11.30;99.90;;;;;;5091894;28;20115;-74
2022/12/22 11:17:39;;;;;;;7.90;1.33;;;11.30;99.90;;;;;;5092385;28;20126;-73
2022/12/22 11:20:29;;;;;;;9.82;1.60;;;11.30;99.90;;;;;;5093556;28;20028;-73
2022/12/22 11:22:57;;;;;;;8.80;1.70;;;11.30;99.90;;;;;;5091443;28;20031;-73
2022/12/22 11:25:32;;;;;;;9.32;1.48;;;11.30;99.90;;;;;;5092248;28;20024;-74
2022/12/22 11:28:16;;;;;;;8.30;1.30;;;11.40;99.90;;;;;;5091616;28;20035;-73
2022/12/22 11:30:58;;;;;;;9.13;1.67;;;11.40;99.90;;;;;;5091710;28;20047;-74
2022/12/22 11:33:33;;;;;;;7.93;1.27;;;11.30;99.90;;;;;;5092271;28;20020;-74
2022/12/22 11:36:05;;;;;;;8.43;1.13;;;11.30;99.90;;;;;;5091532;28;20075;-74
2022/12/22 11:39:05;;;;;;;9.10;1.50;;;11.30;99.90;;;;;;5092049;28;20046;-73
2022/12/22 11:41:59;;;;;;;6.05;0.90;;;11.30;99.90;;;;;;5091709;28;20119;-73
2022/12/22 11:44:38;;;;;;;9.13;1.50;;;11.20;99.90;;;;;;5092927;28;20030;-74
2022/12/22 11:47:25;;;;;;;8.13;1.65;;;11.20;99.90;;;;;;5114047;28;20027;-74
2022/12/22 11:50:19;;;;;;;9.60;1.35;;;11.20;99.90;;;;;;5105961;28;20061;-74
2022/12/22 11:53:01;;;;;;;6.30;0.80;;;11.20;99.90;;;;;;5102294;28;20027;-74
2022/12/22 11:55:38;;;;;;;5.70;0.90;;;11.20;99.90;;;;;;5104651;28;20139;-74
2022/12/22 11:58:21;;;;;;;7.78;1.25;;;11.20;99.90;;;;;;5108792;28;20035;-73
2022/12/22 12:01:23;;;;;;;8.65;1.65;;;11.20;99.90;;;;;;5111363;28;20043;-73
2022/12/22 12:04:25;;;;;;;6.72;1.15;;;11.10;99.90;;;;;;5060192;28;20093;-74
2022/12/22 12:07:08;;;;;;;3.33;1.20;;;11.10;99.90;;;;;;5097942;28;20034;-73
2022/12/22 12:09:48;;;;;;;6.05;1.05;;;11.10;99.90;;;;;;5111626;28;20034;-73
2022/12/22 12:12:42;;;;;;;9.27;1.20;;;11.10;99.90;;;;;;5109646;28;20031;-74
2022/12/22 12:15:30;;;;;;;5.45;1.25;;;11.10;99.90;;;;;;5090945;28;20028;-75
2022/12/22 12:18:25;;;;;;;5.88;1.42;;;11.10;99.90;;;;;;5108148;28;20499;-74
2022/12/22 12:21:09;;;;;;;7.85;1.60;;;11.10;99.90;;;;;;5105564;28;20028;-73
2022/12/22 12:24:11;;;;;;;6.53;1.33;;;11.10;99.90;;;;;;5105195;28;20028;-74
2022/12/22 12:26:48;;;;;;;5.93;1.67;;;11.10;99.90;;;;;;5099981;28;20066;-73
2022/12/22 12:29:27;;;;;;;8.52;1.85;;;11.10;99.90;;;;;;5105350;28;20027;-73
2022/12/22 12:32:03;;;;;;;6.25;1.52;;;11.10;99.90;;;;;;5109826;28;20020;-73
2022/12/22 12:34:34;;;;;;;6.07;1.33;;;11.10;99.90;;;;;;5096421;28;20032;-73
2022/12/22 12:37:16;;;;;;;10.18;1.60;;;11.10;99.90;;;;;;5103894;28;20522;-73
2022/12/22 12:39:41;;;;;;;;;;;11.00;99.90;;;;;;5114626;28;20096;-73
2022/12/22 12:42:16;;;;;;;8.02;1.42;;;11.10;99.90;;;;;;5099644;28;20372;-73
2022/12/22 12:44:42;;;;;;;8.15;1.90;;;11.10;99.90;;;;;;5105362;28;20059;-74
2022/12/22 12:47:27;;;;;;;11.02;1.65;;;11.00;99.90;;;;;;5104299;28;20066;-73
2022/12/22 12:49:56;;;;;;;8.48;1.63;;;11.00;99.90;;;;;;5114637;28;20041;-73
2022/12/22 12:52:51;;;;;;;6.47;1.63;;;11.00;99.90;;;;;;5112023;28;20438;-73
2022/12/22 12:55:30;;;;;;;8.10;1.50;;;11.10;99.90;;;;;;5040446;28;20037;-73
2022/12/22 12:57:57;;;;;;;10.32;2.30;;;11.00;99.90;;;;;;5110357;28;20067;-73
2022/12/22 13:00:32;;;;;;;8.13;1.63;;;11.00;99.90;;;;;;5094845;28;20425;-72
2022/12/22 13:03:09;;;;;;;8.55;1.80;;;11.10;99.90;;;;;;5101997;28;20031;-73
2022/12/22 13:05:52;;;;;;;8.02;1.77;;;11.10;99.90;;;;;;5102966;27;20032;-73
2022/12/22 13:08:28;;;;;;;12.60;1.80;;;11.10;99.90;;;;;;5096834;28;20028;-73
2022/12/22 13:10:54;;;;;;;10.07;1.63;;;11.20;99.90;;;;;;5107961;27;20468;-73
2022/12/22 13:13:25;;;;;;;9.80;1.73;;;11.20;99.90;;;;;;5105018;28;20024;-73
2022/12/22 13:16:03;;;;;;;12.25;1.85;;;11.20;99.90;;;;;;5113912;28;20069;-73
2022/12/22 13:18:38;;;;;;;11.38;2.30;;;11.20;99.90;;;;;;5102455;28;20060;-73
2022/12/22 13:21:24;;;;;;;10.00;1.90;;;11.20;99.90;;;;;;5102189;28;20024;-73
2022/12/22 13:24:18;;;;;;;10.20;1.60;;;11.20;99.90;;;;;;5110448;28;20026;-73
2022/12/22 13:26:46;;;;;;;11.88;2.55;;;11.20;99.90;;;;;;5099493;28;20016;-75
2022/12/22 13:29:39;;;;;;;11.27;2.47;;;11.10;99.90;;;;;;5104402;28;20362;-73
2022/12/22 13:32:28;;;;;;;12.98;2.08;;;11.10;99.90;;;;;;5111456;28;20057;-73
2022/12/22 13:35:03;;;;;;;10.77;2.03;;;11.00;99.90;;;;;;5092502;28;20030;-73
2022/12/22 13:37:29;;;;;;;14.50;2.13;;;11.00;99.90;;;;;;5093361;28;20051;-73
2022/12/22 13:40:18;;;;;;;11.70;2.40;;;11.00;99.90;;;;;;5111320;28;20116;-74
2022/12/22 13:42:45;;;;;;;17.65;2.75;;;11.00;99.90;;;;;;5098955;28;20472;-74
2022/12/22 13:45:21;;;;;;;15.00;2.53;;;11.00;99.90;;;;;;5113749;28;20038;-73
2022/12/22 13:47:47;;;;;;;18.75;2.60;;;11.00;99.90;;;;;;5098701;28;20045;-73
2022/12/22 13:50:35;;;;;;;13.05;1.80;;;11.00;99.90;;;;;;5096357;28;20062;-74
2022/12/22 13:53:05;;;;;;;21.23;2.42;;;11.00;99.90;;;;;;5104703;28;20484;-74
2022/12/22 13:55:31;;;;;;;14.50;2.33;;;11.00;99.90;;;;;;5105922;28;20387;-74
2022/12/22 13:58:18;;;;;;;19.38;2.45;;;11.00;99.90;;;;;;5098188;28;20030;-74
2022/12/22 14:00:43;;;;;;;25.55;2.95;;;11.00;99.90;;;;;;5099083;28;20088;-76
2022/12/22 14:03:18;;;;;;;18.15;2.33;;;11.00;99.90;;;;;;5103903;28;20461;-75
2022/12/22 14:05:44;;;;;;;17.58;2.80;;;11.00;99.90;;;;;;5107366;28;20055;-75
2022/12/22 14:08:11;;;;;;;23.23;3.38;;;11.00;99.90;;;;;;5096733;28;20067;-74
2022/12/22 14:10:41;;;;;;;17.08;2.90;;;11.00;99.90;;;;;;5108550;28;20506;-74
2022/12/22 14:13:16;;;;;;;21.65;3.33;;;11.00;99.90;;;;;;5101422;28;20465;-74
2022/12/22 14:15:43;;;;;;;20.38;3.10;;;11.00;99.90;;;;;;5113512;28;20039;-74
2022/12/22 14:18:20;;;;;;;19.25;3.33;;;11.00;99.90;;;;;;5112895;28;20043;-74
2022/12/22 14:20:46;;;;;;;24.25;3.10;;;11.00;99.90;;;;;;5107971;28;20039;-75
2022/12/22 14:23:25;;;;;;;23.00;3.67;;;11.00;99.90;;;;;;5102873;28;20022;-74
2022/12/22 14:25:52;;;;;;;17.85;2.78;;;11.10;99.90;;;;;;5097210;28;20024;-74
2022/12/22 14:28:24;;;;;;;20.65;3.42;;;11.10;99.90;;;;;;5111010;28;20030;-74
2022/12/22 14:30:52;;;;;;;25.05;3.13;;;11.10;99.90;;;;;;5092417;28;20020;-75
2022/12/22 14:33:25;;;;;;;16.80;2.78;;;11.10;99.90;;;;;;5104859;28;20028;-74
2022/12/22 14:36:02;;;;;;;18.45;3.63;;;11.10;99.90;;;;;;5112473;28;20039;-74
2022/12/22 14:38:28;;;;;;;20.85;3.42;;;11.10;99.90;;;;;;5093058;28;20028;-74
2022/12/22 14:40:54;;;;;;;16.85;3.10;;;11.10;99.90;;;;;;5093410;28;20385;-74
2022/12/22 14:43:19;;;;;;;16.63;2.78;;;11.20;99.90;;;;;;5099991;28;20110;-73
2022/12/22 14:45:48;;;;;;;23.88;3.47;;;11.20;99.90;;;;;;5114197;28;20475;-76
2022/12/22 14:48:34;;;;;;;21.65;3.35;;;11.20;99.90;;;;;;5112116;28;20030;-74
2022/12/22 14:51:01;;;;;;;20.42;4.22;;;11.20;99.90;;;;;;5112129;28;20023;-74
2022/12/22 14:53:38;;;;;;;21.55;3.00;;;11.20;99.90;;;;;;5100468;28;20025;-74
2022/12/22 14:56:12;;;;;;;12.20;2.25;;;11.20;99.90;;;;;;5092005;28;20047;-75
2022/12/22 14:58:41;;;;;;;10.52;2.15;;;11.30;99.90;;;;;;5111975;28;20080;-76
2022/12/22 15:01:31;;;;;;;17.83;2.83;;;11.20;99.90;;;;;;5106893;28;20030;-74
2022/12/22 15:04:18;;;;;;;14.25;1.98;;;11.30;99.90;;;;;;5096049;28;20024;-75
2022/12/22 15:06:46;;;;;;;17.90;2.45;;;11.30;99.90;;;;;;5115206;27;20032;-78
2022/12/22 15:09:12;;;;;;;14.95;2.53;;;11.30;99.90;;;;;;5103576;28;20046;-74
2022/12/22 15:11:50;;;;;;;15.30;2.97;;;11.30;99.90;;;;;;5113506;28;20067;-74
2022/12/22 15:14:21;;;;;;;16.45;2.50;;;11.40;99.90;;;;;;5105026;28;20027;-74
2022/12/22 15:16:48;;;;;;;15.50;2.65;;;11.40;99.90;;;;;;5107662;28;20067;-75
2022/12/22 15:19:16;;;;;;;13.00;2.35;;;11.40;99.90;;;;;;5108492;28;20076;-74
2022/12/22 15:21:42;;;;;;;16.98;2.45;;;11.40;99.90;;;;;;5110387;28;20016;-75
2022/12/22 15:24:11;;;;;;;14.32;2.50;;;11.40;99.90;;;;;;5108701;28;20047;-74
2022/12/22 15:26:37;;;;;;;16.38;2.05;;;11.40;99.90;;;;;;5103612;28;20046;-74
2022/12/22 15:29:02;;;;;;;21.08;3.65;;;11.40;99.90;;;;;;5110159;28;20024;-74
2022/12/22 15:31:28;;;;;;;14.55;3.28;;;11.40;99.90;;;;;;5107848;28;20023;-74
2022/12/22 15:34:01;;;;;;;14.20;2.60;;;11.40;99.90;;;;;;5103861;28;20024;-74
2022/12/22 15:36:27;;;;;;;12.43;2.28;;;11.30;99.90;;;;;;5102730;28;20027;-75
2022/12/22 15:38:53;;;;;;;12.88;2.60;;;11.30;99.90;;;;;;5106222;28;20024;-75
2022/12/22 15:41:18;;;;;;;10.60;2.80;;;11.30;99.90;;;;;;5103304;28;20027;-74
2022/12/22 15:43:44;;;;;;;10.48;2.70;;;11.30;99.90;;;;;;5101634;28;20028;-74
2022/12/22 15:46:14;;;;;;;13.60;2.30;;;11.30;99.90;;;;;;5109002;28;20069;-74
2022/12/22 15:48:40;;;;;;;14.48;2.10;;;11.30;99.90;;;;;;5099378;28;20114;-74
2022/12/22 15:51:13;;;;;;;16.08;2.95;;;11.30;99.90;;;;;;5099929;28;20030;-74
2022/12/22 15:53:38;;;;;;;10.57;2.13;;;11.20;99.90;;;;;;5099453;28;20067;-74
2022/12/22 15:56:04;;;;;;;10.35;1.88;;;11.20;99.90;;;;;;5107531;28;20189;-76
2022/12/22 15:58:34;;;;;;;14.48;2.17;;;11.20;99.90;;;;;;5096654;28;20031;-74
2022/12/22 16:00:59;;;;;;;15.20;2.08;;;11.20;99.90;;;;;;5102627;28;20031;-74
2022/12/22 16:03:25;;;;;;;13.27;2.00;;;11.20;99.90;;;;;;5103144;28;20032;-74
2022/12/22 16:05:52;;;;;;;14.05;1.98;;;11.20;99.90;;;;;;5095616;28;20024;-74
2022/12/22 16:08:27;;;;;;;6.93;2.00;;;11.20;99.90;;;;;;5107829;28;20384;-74
2022/12/22 16:10:53;;;;;;;12.40;2.05;;;11.20;99.90;;;;;;5099573;28;20047;-74
2022/12/22 16:13:24;;;;;;;12.63;2.15;;;11.10;99.90;;;;;;5105867;28;20058;-74
2022/12/22 16:15:49;;;;;;;8.00;1.97;;;11.10;99.90;;;;;;5111193;28;20063;-75
2022/12/22 16:18:16;;;;;;;15.70;2.22;;;11.10;99.90;;;;;;5094018;28;20067;-74
2022/12/22 16:20:43;;;;;;;9.95;1.48;;;11.10;99.90;;;;;;5101460;28;20071;-74
2022/12/22 16:23:26;;;;;;;14.77;2.60;;;11.10;99.90;;;;;;5099940;28;20388;-74
2022/12/22 16:25:57;;;;;;;6.28;1.45;;;11.00;99.90;;;;;;5111004;28;20115;-75
2022/12/22 16:28:24;;;;;;;12.20;1.95;;;11.00;99.90;;;;;;5094479;28;20024;-74
2022/12/22 16:30:51;;;;;;;8.50;1.92;;;11.00;99.90;;;;;;5105316;28;20024;-75
2022/12/22 16:33:17;;;;;;;15.23;2.03;;;11.00;99.90;;;;;;5101594;28;20472;-74
2022/12/22 16:35:43;;;;;;;6.38;1.98;;;11.00;99.90;;;;;;5098296;28;20043;-74
2022/12/22 16:38:09;;;;;;;11.10;1.60;;;11.00;99.90;;;;;;5108596;28;20028;-75
2022/12/22 16:40:47;;;;;;;8.85;1.98;;;11.00;99.90;;;;;;5106735;28;20501;-75
2022/12/22 16:43:42;;;;;;;11.32;2.15;;;10.90;99.90;;;;;;5100743;28;20022;-74